sensor_id;sensor_type;location;lat;lon;timestamp;P1;durP1;ratioP1;P2;durP2;ratioP2
60979;SDS011;46851;49.160;8.980;2022-07-01T00:02:23;1.38;;;0.70;;
60979;SDS011;46851;49.160;8.980;2022-07-01T00:04:50;3.05;;;0.90;;
60979;SDS011;46851;49.160;8.980;2022-07-01T00:07:16;3.55;;;0.90;;
60979;SDS011;46851;49.160;8.980;2022-07-01T00:09:42;1.58;;;0.80;;
60979;SDS011;46851;49.160;8.980;2022-07-01T00:12:08;1.65;;;0.88;;
60979;SDS011;46851;49.160;8.980;2022-07-01T00:14:34;2.83;;;1.08;;
60979;SDS011;46851;49.160;8.980;2022-07-01T00:17:00;5.20;;;0.95;;
60979;SDS011;46851;49.160;8.980;2022-07-01T00:19:26;3.70;;;0.95;;
60979;SDS011;46851;49.160;8.980;2022-07-01T00:21:52;5.88;;;1.02;;
60979;SDS011;46851;49.160;8.980;2022-07-01T00:24:19;4.78;;;1.00;;
60979;SDS011;46851;49.160;8.980;2022-07-01T00:26:45;2.00;;;0.80;;
60979;SDS011;46851;49.160;8.980;2022-07-01T00:29:11;7.20;;;1.10;;
60979;SDS011;46851;49.160;8.980;2022-07-01T00:31:37;3.75;;;0.95;;
60979;SDS011;46851;49.160;8.980;2022-07-01T00:34:03;2.00;;;1.25;;
60979;SDS011;46851;49.160;8.980;2022-07-01T00:36:29;1.25;;;0.85;;
60979;SDS011;46851;49.160;8.980;2022-07-01T00:38:55;4.28;;;0.88;;
60979;SDS011;46851;49.160;8.980;2022-07-01T00:41:21;1.42;;;0.80;;
60979;SDS011;46851;49.160;8.980;2022-07-01T00:43:47;3.97;;;0.95;;
60979;SDS011;46851;49.160;8.980;2022-07-01T00:46:13;3.15;;;0.90;;
60979;SDS011;46851;49.160;8.980;2022-07-01T00:48:39;2.33;;;0.88;;
60979;SDS011;46851;49.160;8.980;2022-07-01T00:51:06;1.88;;;1.00;;
60979;SDS011;46851;49.160;8.980;2022-07-01T00:53:32;4.60;;;1.05;;
60979;SDS011;46851;49.160;8.980;2022-07-01T00:55:58;1.67;;;0.88;;
60979;SDS011;46851;49.160;8.980;2022-07-01T00:58:26;4.18;;;1.17;;
60979;SDS011;46851;49.160;8.980;2022-07-01T01:00:53;1.90;;;0.80;;
60979;SDS011;46851;49.160;8.980;2022-07-01T01:03:19;2.67;;;1.02;;
60979;SDS011;46851;49.160;8.980;2022-07-01T01:05:45;1.77;;;0.95;;
60979;SDS011;46851;49.160;8.980;2022-07-01T01:08:11;4.53;;;1.20;;
60979;SDS011;46851;49.160;8.980;2022-07-01T01:10:37;3.47;;;1.00;;
60979;SDS011;46851;49.160;8.980;2022-07-01T01:13:04;2.33;;;1.10;;
60979;SDS011;46851;49.160;8.980;2022-07-01T01:15:30;2.92;;;1.00;;
60979;SDS011;46851;49.160;8.980;2022-07-01T01:17:56;2.20;;;1.10;;
60979;SDS011;46851;49.160;8.980;2022-07-01T01:20:23;1.92;;;1.00;;
60979;SDS011;46851;49.160;8.980;2022-07-01T01:22:49;0.98;;;0.90;;
60979;SDS011;46851;49.160;8.980;2022-07-01T01:25:15;2.40;;;0.70;;
60979;SDS011;46851;49.160;8.980;2022-07-01T01:27:41;1.95;;;1.00;;
60979;SDS011;46851;49.160;8.980;2022-07-01T01:30:08;2.55;;;0.90;;
60979;SDS011;46851;49.160;8.980;2022-07-01T01:32:35;1.50;;;0.80;;
60979;SDS011;46851;49.160;8.980;2022-07-01T01:35:01;2.20;;;0.82;;
60979;SDS011;46851;49.160;8.980;2022-07-01T01:37:27;2.28;;;1.08;;
60979;SDS011;46851;49.160;8.980;2022-07-01T01:39:54;1.40;;;0.95;;
60979;SDS011;46851;49.160;8.980;2022-07-01T01:42:20;4.03;;;0.98;;
60979;SDS011;46851;49.160;8.980;2022-07-01T01:44:46;2.28;;;1.05;;
60979;SDS011;46851;49.160;8.980;2022-07-01T01:47:12;2.75;;;1.00;;
60979;SDS011;46851;49.160;8.980;2022-07-01T01:49:38;2.47;;;0.82;;
60979;SDS011;46851;49.160;8.980;2022-07-01T01:52:05;1.70;;;0.90;;
60979;SDS011;46851;49.160;8.980;2022-07-01T01:54:31;1.65;;;0.80;;
60979;SDS011;46851;49.160;8.980;2022-07-01T01:56:57;1.83;;;0.88;;
60979;SDS011;46851;49.160;8.980;2022-07-01T01:59:24;1.65;;;1.20;;
60979;SDS011;46851;49.160;8.980;2022-07-01T02:01:50;2.97;;;0.90;;
60979;SDS011;46851;49.160;8.980;2022-07-01T02:04:16;4.88;;;1.00;;
60979;SDS011;46851;49.160;8.980;2022-07-01T02:06:42;1.17;;;0.95;;
60979;SDS011;46851;49.160;8.980;2022-07-01T02:09:08;4.45;;;1.20;;
60979;SDS011;46851;49.160;8.980;2022-07-01T02:11:34;2.35;;;1.17;;
60979;SDS011;46851;49.160;8.980;2022-07-01T02:14:00;2.65;;;1.10;;
60979;SDS011;46851;49.160;8.980;2022-07-01T02:16:26;1.50;;;1.10;;
60979;SDS011;46851;49.160;8.980;2022-07-01T02:18:52;10.27;;;1.40;;
60979;SDS011;46851;49.160;8.980;2022-07-01T02:21:18;2.88;;;1.23;;
60979;SDS011;46851;49.160;8.980;2022-07-01T02:23:44;1.83;;;1.10;;
60979;SDS011;46851;49.160;8.980;2022-07-01T02:26:10;2.67;;;0.90;;
60979;SDS011;46851;49.160;8.980;2022-07-01T02:28:37;3.78;;;1.10;;
60979;SDS011;46851;49.160;8.980;2022-07-01T02:31:03;4.30;;;1.13;;
60979;SDS011;46851;49.160;8.980;2022-07-01T02:33:29;3.38;;;1.08;;
60979;SDS011;46851;49.160;8.980;2022-07-01T02:35:56;2.08;;;1.08;;
60979;SDS011;46851;49.160;8.980;2022-07-01T02:38:22;3.60;;;1.27;;
60979;SDS011;46851;49.160;8.980;2022-07-01T02:40:48;2.75;;;1.10;;
60979;SDS011;46851;49.160;8.980;2022-07-01T02:43:14;3.13;;;1.33;;
60979;SDS011;46851;49.160;8.980;2022-07-01T02:45:41;2.75;;;1.00;;
60979;SDS011;46851;49.160;8.980;2022-07-01T02:48:07;2.70;;;1.00;;
60979;SDS011;46851;49.160;8.980;2022-07-01T02:50:34;1.38;;;1.20;;
60979;SDS011;46851;49.160;8.980;2022-07-01T02:53:00;2.45;;;1.15;;
60979;SDS011;46851;49.160;8.980;2022-07-01T02:58:32;1.45;;;1.10;;
60979;SDS011;46851;49.160;8.980;2022-07-01T03:00:58;1.13;;;1.02;;
60979;SDS011;46851;49.160;8.980;2022-07-01T03:03:24;7.40;;;1.25;;
60979;SDS011;46851;49.160;8.980;2022-07-01T03:05:50;2.05;;;1.30;;
60979;SDS011;46851;49.160;8.980;2022-07-01T03:08:16;2.67;;;1.40;;
60979;SDS011;46851;49.160;8.980;2022-07-01T03:10:42;2.38;;;1.40;;
60979;SDS011;46851;49.160;8.980;2022-07-01T03:13:08;2.42;;;1.13;;
60979;SDS011;46851;49.160;8.980;2022-07-01T03:15:34;3.78;;;1.42;;
60979;SDS011;46851;49.160;8.980;2022-07-01T03:18:00;4.97;;;1.23;;
60979;SDS011;46851;49.160;8.980;2022-07-01T03:20:26;2.75;;;1.20;;
60979;SDS011;46851;49.160;8.980;2022-07-01T03:22:52;2.63;;;1.58;;
60979;SDS011;46851;49.160;8.980;2022-07-01T03:25:18;1.48;;;1.25;;
60979;SDS011;46851;49.160;8.980;2022-07-01T03:27:44;2.45;;;1.00;;
60979;SDS011;46851;49.160;8.980;2022-07-01T03:30:10;1.27;;;1.10;;
60979;SDS011;46851;49.160;8.980;2022-07-01T03:32:36;2.75;;;1.20;;
60979;SDS011;46851;49.160;8.980;2022-07-01T03:35:02;2.88;;;0.90;;
60979;SDS011;46851;49.160;8.980;2022-07-01T03:37:49;4.15;;;1.30;;
60979;SDS011;46851;49.160;8.980;2022-07-01T03:40:15;3.95;;;1.48;;
60979;SDS011;46851;49.160;8.980;2022-07-01T03:42:41;1.17;;;0.95;;
60979;SDS011;46851;49.160;8.980;2022-07-01T03:45:07;1.85;;;0.90;;
60979;SDS011;46851;49.160;8.980;2022-07-01T03:47:33;1.40;;;1.10;;
60979;SDS011;46851;49.160;8.980;2022-07-01T03:49:59;1.95;;;1.40;;
60979;SDS011;46851;49.160;8.980;2022-07-01T03:52:25;4.25;;;1.40;;
60979;SDS011;46851;49.160;8.980;2022-07-01T03:54:51;6.72;;;1.95;;
60979;SDS011;46851;49.160;8.980;2022-07-01T03:57:17;2.65;;;1.40;;
60979;SDS011;46851;49.160;8.980;2022-07-01T03:59:43;2.83;;;1.80;;
60979;SDS011;46851;49.160;8.980;2022-07-01T04:02:11;3.63;;;1.80;;
60979;SDS011;46851;49.160;8.980;2022-07-01T04:04:37;7.57;;;2.60;;
60979;SDS011;46851;49.160;8.980;2022-07-01T04:07:04;3.95;;;2.15;;
60979;SDS011;46851;49.160;8.980;2022-07-01T04:09:32;11.93;;;2.67;;
60979;SDS011;46851;49.160;8.980;2022-07-01T04:11:58;2.22;;;1.70;;
60979;SDS011;46851;49.160;8.980;2022-07-01T04:14:24;4.75;;;2.00;;
60979;SDS011;46851;49.160;8.980;2022-07-01T04:16:50;6.32;;;2.10;;
60979;SDS011;46851;49.160;8.980;2022-07-01T04:19:17;2.45;;;2.05;;
60979;SDS011;46851;49.160;8.980;2022-07-01T04:21:43;3.97;;;2.25;;
60979;SDS011;46851;49.160;8.980;2022-07-01T04:24:27;7.40;;;2.47;;
60979;SDS011;46851;49.160;8.980;2022-07-01T04:26:57;6.38;;;2.88;;
60979;SDS011;46851;49.160;8.980;2022-07-01T04:29:23;8.65;;;2.80;;
60979;SDS011;46851;49.160;8.980;2022-07-01T04:31:49;9.30;;;2.58;;
60979;SDS011;46851;49.160;8.980;2022-07-01T04:34:15;7.15;;;2.70;;
60979;SDS011;46851;49.160;8.980;2022-07-01T04:36:41;22.10;;;3.35;;
60979;SDS011;46851;49.160;8.980;2022-07-01T04:39:07;8.68;;;2.28;;
60979;SDS011;46851;49.160;8.980;2022-07-01T04:41:33;4.97;;;2.10;;
60979;SDS011;46851;49.160;8.980;2022-07-01T04:44:18;12.82;;;2.65;;
60979;SDS011;46851;49.160;8.980;2022-07-01T04:46:44;21.13;;;2.78;;
60979;SDS011;46851;49.160;8.980;2022-07-01T04:49:10;8.77;;;2.70;;
60979;SDS011;46851;49.160;8.980;2022-07-01T04:51:36;8.48;;;3.08;;
60979;SDS011;46851;49.160;8.980;2022-07-01T04:54:02;14.80;;;4.00;;
60979;SDS011;46851;49.160;8.980;2022-07-01T04:56:28;6.85;;;3.20;;
60979;SDS011;46851;49.160;8.980;2022-07-01T04:58:55;7.05;;;2.58;;
60979;SDS011;46851;49.160;8.980;2022-07-01T05:01:21;13.00;;;3.00;;
60979;SDS011;46851;49.160;8.980;2022-07-01T05:03:47;22.27;;;3.70;;
60979;SDS011;46851;49.160;8.980;2022-07-01T05:06:13;5.60;;;2.40;;
60979;SDS011;46851;49.160;8.980;2022-07-01T05:08:39;11.18;;;2.60;;
60979;SDS011;46851;49.160;8.980;2022-07-01T05:11:05;9.88;;;2.42;;
60979;SDS011;46851;49.160;8.980;2022-07-01T05:13:31;16.67;;;3.58;;
60979;SDS011;46851;49.160;8.980;2022-07-01T05:16:01;10.50;;;2.80;;
60979;SDS011;46851;49.160;8.980;2022-07-01T05:18:27;8.30;;;2.50;;
60979;SDS011;46851;49.160;8.980;2022-07-01T05:21:12;6.90;;;2.60;;
60979;SDS011;46851;49.160;8.980;2022-07-01T05:23:56;5.70;;;2.45;;
60979;SDS011;46851;49.160;8.980;2022-07-01T05:26:22;19.70;;;2.70;;
60979;SDS011;46851;49.160;8.980;2022-07-01T05:28:51;20.02;;;2.50;;
60979;SDS011;46851;49.160;8.980;2022-07-01T05:31:17;9.43;;;2.70;;
60979;SDS011;46851;49.160;8.980;2022-07-01T05:33:43;8.05;;;2.78;;
60979;SDS011;46851;49.160;8.980;2022-07-01T05:36:09;10.32;;;2.70;;
60979;SDS011;46851;49.160;8.980;2022-07-01T05:38:36;10.52;;;2.78;;
60979;SDS011;46851;49.160;8.980;2022-07-01T05:41:02;12.38;;;2.83;;
60979;SDS011;46851;49.160;8.980;2022-07-01T05:43:28;12.98;;;3.03;;
60979;SDS011;46851;49.160;8.980;2022-07-01T05:45:55;7.10;;;2.92;;
60979;SDS011;46851;49.160;8.980;2022-07-01T05:48:21;10.82;;;2.70;;
60979;SDS011;46851;49.160;8.980;2022-07-01T05:50:47;9.70;;;2.90;;
60979;SDS011;46851;49.160;8.980;2022-07-01T05:53:13;6.03;;;3.13;;
60979;SDS011;46851;49.160;8.980;2022-07-01T05:55:39;4.10;;;2.58;;
60979;SDS011;46851;49.160;8.980;2022-07-01T05:58:06;4.53;;;2.58;;
60979;SDS011;46851;49.160;8.980;2022-07-01T06:00:33;6.00;;;3.40;;
60979;SDS011;46851;49.160;8.980;2022-07-01T06:02:59;15.93;;;5.35;;
60979;SDS011;46851;49.160;8.980;2022-07-01T06:05:25;10.98;;;3.50;;
60979;SDS011;46851;49.160;8.980;2022-07-01T06:07:51;9.38;;;4.28;;
60979;SDS011;46851;49.160;8.980;2022-07-01T06:10:17;7.15;;;3.90;;
60979;SDS011;46851;49.160;8.980;2022-07-01T06:15:25;7.47;;;4.00;;
60979;SDS011;46851;49.160;8.980;2022-07-01T06:17:51;8.43;;;4.35;;
60979;SDS011;46851;49.160;8.980;2022-07-01T06:20:18;8.10;;;4.18;;
60979;SDS011;46851;49.160;8.980;2022-07-01T06:22:44;8.70;;;4.65;;
60979;SDS011;46851;49.160;8.980;2022-07-01T06:25:10;11.00;;;4.25;;
60979;SDS011;46851;49.160;8.980;2022-07-01T06:27:43;12.50;;;4.97;;
60979;SDS011;46851;49.160;8.980;2022-07-01T06:30:10;10.45;;;4.35;;
60979;SDS011;46851;49.160;8.980;2022-07-01T06:32:36;12.25;;;5.50;;
60979;SDS011;46851;49.160;8.980;2022-07-01T06:35:03;6.20;;;4.00;;
60979;SDS011;46851;49.160;8.980;2022-07-01T06:37:29;5.25;;;3.85;;
60979;SDS011;46851;49.160;8.980;2022-07-01T06:39:59;4.72;;;3.28;;
60979;SDS011;46851;49.160;8.980;2022-07-01T06:42:25;5.95;;;3.25;;
60979;SDS011;46851;49.160;8.980;2022-07-01T06:44:51;9.70;;;3.83;;
60979;SDS011;46851;49.160;8.980;2022-07-01T06:47:17;12.48;;;3.92;;
60979;SDS011;46851;49.160;8.980;2022-07-01T06:49:43;5.30;;;3.10;;
60979;SDS011;46851;49.160;8.980;2022-07-01T06:52:09;5.07;;;2.85;;
60979;SDS011;46851;49.160;8.980;2022-07-01T06:54:35;7.18;;;3.33;;
60979;SDS011;46851;49.160;8.980;2022-07-01T06:57:03;10.10;;;3.40;;
60979;SDS011;46851;49.160;8.980;2022-07-01T06:59:29;6.90;;;3.25;;
60979;SDS011;46851;49.160;8.980;2022-07-01T07:01:55;7.25;;;3.55;;
60979;SDS011;46851;49.160;8.980;2022-07-01T07:04:21;13.30;;;4.57;;
60979;SDS011;46851;49.160;8.980;2022-07-01T07:06:47;10.52;;;3.40;;
60979;SDS011;46851;49.160;8.980;2022-07-01T07:09:13;6.38;;;3.25;;
60979;SDS011;46851;49.160;8.980;2022-07-01T07:11:39;10.63;;;3.60;;
60979;SDS011;46851;49.160;8.980;2022-07-01T07:14:05;8.95;;;3.95;;
60979;SDS011;46851;49.160;8.980;2022-07-01T07:16:31;6.80;;;3.67;;
60979;SDS011;46851;49.160;8.980;2022-07-01T07:18:57;8.80;;;4.20;;
60979;SDS011;46851;49.160;8.980;2022-07-01T07:21:23;10.48;;;4.03;;
60979;SDS011;46851;49.160;8.980;2022-07-01T07:23:49;6.65;;;3.45;;
60979;SDS011;46851;49.160;8.980;2022-07-01T07:26:15;11.18;;;3.90;;
60979;SDS011;46851;49.160;8.980;2022-07-01T07:28:41;7.38;;;2.90;;
60979;SDS011;46851;49.160;8.980;2022-07-01T07:31:07;4.63;;;3.25;;
60979;SDS011;46851;49.160;8.980;2022-07-01T07:33:33;6.72;;;3.80;;
60979;SDS011;46851;49.160;8.980;2022-07-01T07:35:59;4.07;;;2.65;;
60979;SDS011;46851;49.160;8.980;2022-07-01T07:38:25;10.85;;;3.38;;
60979;SDS011;46851;49.160;8.980;2022-07-01T07:40:51;3.60;;;2.97;;
60979;SDS011;46851;49.160;8.980;2022-07-01T07:43:17;3.85;;;2.90;;
60979;SDS011;46851;49.160;8.980;2022-07-01T07:45:43;4.97;;;3.33;;
60979;SDS011;46851;49.160;8.980;2022-07-01T07:48:09;6.63;;;2.97;;
60979;SDS011;46851;49.160;8.980;2022-07-01T07:50:36;5.57;;;2.30;;
60979;SDS011;46851;49.160;8.980;2022-07-01T07:53:02;3.22;;;2.05;;
60979;SDS011;46851;49.160;8.980;2022-07-01T07:55:28;2.80;;;2.20;;
60979;SDS011;46851;49.160;8.980;2022-07-01T07:57:54;4.95;;;2.75;;
60979;SDS011;46851;49.160;8.980;2022-07-01T08:00:20;6.88;;;2.25;;
60979;SDS011;46851;49.160;8.980;2022-07-01T08:02:46;3.70;;;1.98;;
60979;SDS011;46851;49.160;8.980;2022-07-01T08:05:12;2.90;;;2.13;;
60979;SDS011;46851;49.160;8.980;2022-07-01T08:07:38;2.10;;;1.80;;
60979;SDS011;46851;49.160;8.980;2022-07-01T08:10:05;4.53;;;2.38;;
60979;SDS011;46851;49.160;8.980;2022-07-01T08:12:31;1.63;;;1.52;;
60979;SDS011;46851;49.160;8.980;2022-07-01T08:14:57;2.72;;;2.00;;
60979;SDS011;46851;49.160;8.980;2022-07-01T08:17:24;2.72;;;2.05;;
60979;SDS011;46851;49.160;8.980;2022-07-01T08:19:50;8.07;;;3.92;;
60979;SDS011;46851;49.160;8.980;2022-07-01T08:22:16;3.05;;;1.88;;
60979;SDS011;46851;49.160;8.980;2022-07-01T08:24:42;4.57;;;2.08;;
60979;SDS011;46851;49.160;8.980;2022-07-01T08:27:08;4.25;;;2.55;;
60979;SDS011;46851;49.160;8.980;2022-07-01T08:29:34;3.92;;;3.00;;
60979;SDS011;46851;49.160;8.980;2022-07-01T08:32:00;6.35;;;2.53;;
60979;SDS011;46851;49.160;8.980;2022-07-01T08:34:26;4.00;;;2.63;;
60979;SDS011;46851;49.160;8.980;2022-07-01T08:36:52;3.42;;;2.50;;
60979;SDS011;46851;49.160;8.980;2022-07-01T08:39:18;4.53;;;3.20;;
60979;SDS011;46851;49.160;8.980;2022-07-01T08:41:44;6.47;;;3.03;;
60979;SDS011;46851;49.160;8.980;2022-07-01T08:44:10;6.05;;;3.13;;
60979;SDS011;46851;49.160;8.980;2022-07-01T08:46:36;3.10;;;2.80;;
60979;SDS011;46851;49.160;8.980;2022-07-01T08:49:02;3.90;;;2.78;;
60979;SDS011;46851;49.160;8.980;2022-07-01T08:51:28;7.22;;;2.95;;
60979;SDS011;46851;49.160;8.980;2022-07-01T08:53:54;4.30;;;2.80;;
60979;SDS011;46851;49.160;8.980;2022-07-01T08:56:20;9.25;;;3.03;;
60979;SDS011;46851;49.160;8.980;2022-07-01T08:59:05;4.63;;;3.20;;
60979;SDS011;46851;49.160;8.980;2022-07-01T09:01:32;8.68;;;3.58;;
60979;SDS011;46851;49.160;8.980;2022-07-01T09:04:11;4.53;;;3.08;;
60979;SDS011;46851;49.160;8.980;2022-07-01T09:06:38;4.80;;;3.10;;
60979;SDS011;46851;49.160;8.980;2022-07-01T09:09:14;4.03;;;2.95;;
60979;SDS011;46851;49.160;8.980;2022-07-01T09:11:58;4.00;;;2.45;;
60979;SDS011;46851;49.160;8.980;2022-07-01T09:14:25;5.97;;;2.50;;
60979;SDS011;46851;49.160;8.980;2022-07-01T09:16:52;4.22;;;2.88;;
60979;SDS011;46851;49.160;8.980;2022-07-01T09:19:20;4.65;;;3.00;;
60979;SDS011;46851;49.160;8.980;2022-07-01T09:21:47;7.68;;;3.00;;
60979;SDS011;46851;49.160;8.980;2022-07-01T09:29:25;4.45;;;3.05;;
60979;SDS011;46851;49.160;8.980;2022-07-01T09:31:52;5.97;;;3.70;;
60979;SDS011;46851;49.160;8.980;2022-07-01T09:34:18;3.40;;;2.17;;
60979;SDS011;46851;49.160;8.980;2022-07-01T09:36:52;5.43;;;2.85;;
60979;SDS011;46851;49.160;8.980;2022-07-01T09:39:18;2.85;;;2.50;;
60979;SDS011;46851;49.160;8.980;2022-07-01T09:41:44;2.67;;;2.20;;
60979;SDS011;46851;49.160;8.980;2022-07-01T09:44:10;2.67;;;2.47;;
60979;SDS011;46851;49.160;8.980;2022-07-01T09:46:36;5.05;;;2.83;;
60979;SDS011;46851;49.160;8.980;2022-07-01T09:49:02;4.70;;;2.92;;
60979;SDS011;46851;49.160;8.980;2022-07-01T09:51:29;3.13;;;2.40;;
60979;SDS011;46851;49.160;8.980;2022-07-01T09:53:55;3.28;;;2.47;;
60979;SDS011;46851;49.160;8.980;2022-07-01T09:56:22;5.63;;;2.47;;
60979;SDS011;46851;49.160;8.980;2022-07-01T09:58:49;4.18;;;2.88;;
60979;SDS011;46851;49.160;8.980;2022-07-01T10:01:15;3.97;;;3.00;;
60979;SDS011;46851;49.160;8.980;2022-07-01T10:03:41;3.28;;;2.80;;
60979;SDS011;46851;49.160;8.980;2022-07-01T10:13:59;4.65;;;1.88;;
60979;SDS011;46851;49.160;8.980;2022-07-01T10:16:25;3.70;;;1.70;;
60979;SDS011;46851;49.160;8.980;2022-07-01T10:18:51;3.05;;;2.17;;
60979;SDS011;46851;49.160;8.980;2022-07-01T10:21:26;4.20;;;2.35;;
60979;SDS011;46851;49.160;8.980;2022-07-01T10:23:55;4.05;;;2.45;;
60979;SDS011;46851;49.160;8.980;2022-07-01T10:26:36;2.13;;;1.75;;
60979;SDS011;46851;49.160;8.980;2022-07-01T10:29:02;2.35;;;1.45;;
60979;SDS011;46851;49.160;8.980;2022-07-01T10:31:35;2.72;;;2.00;;
60979;SDS011;46851;49.160;8.980;2022-07-01T10:34:02;4.85;;;1.45;;
60979;SDS011;46851;49.160;8.980;2022-07-01T10:36:30;5.32;;;1.77;;
60979;SDS011;46851;49.160;8.980;2022-07-01T10:41:26;2.47;;;1.58;;
60979;SDS011;46851;49.160;8.980;2022-07-01T10:43:56;3.60;;;1.40;;
60979;SDS011;46851;49.160;8.980;2022-07-01T10:46:40;4.50;;;1.70;;
60979;SDS011;46851;49.160;8.980;2022-07-01T10:49:12;7.38;;;1.70;;
60979;SDS011;46851;49.160;8.980;2022-07-01T10:54:04;4.53;;;1.30;;
60979;SDS011;46851;49.160;8.980;2022-07-01T10:56:40;2.15;;;1.20;;
60979;SDS011;46851;49.160;8.980;2022-07-01T10:59:07;3.60;;;1.33;;
60979;SDS011;46851;49.160;8.980;2022-07-01T11:01:33;4.43;;;1.50;;
60979;SDS011;46851;49.160;8.980;2022-07-01T11:03:59;4.57;;;1.25;;
60979;SDS011;46851;49.160;8.980;2022-07-01T11:06:26;2.70;;;1.20;;
60979;SDS011;46851;49.160;8.980;2022-07-01T11:08:52;2.08;;;1.20;;
60979;SDS011;46851;49.160;8.980;2022-07-01T11:11:19;4.40;;;1.67;;
60979;SDS011;46851;49.160;8.980;2022-07-01T11:13:47;3.10;;;1.40;;
60979;SDS011;46851;49.160;8.980;2022-07-01T11:16:13;5.53;;;1.60;;
60979;SDS011;46851;49.160;8.980;2022-07-01T11:18:40;1.67;;;1.30;;
60979;SDS011;46851;49.160;8.980;2022-07-01T11:21:07;2.03;;;1.20;;
60979;SDS011;46851;49.160;8.980;2022-07-01T11:23:33;9.07;;;1.25;;
60979;SDS011;46851;49.160;8.980;2022-07-01T11:26:00;3.30;;;1.45;;
60979;SDS011;46851;49.160;8.980;2022-07-01T11:28:26;5.45;;;1.33;;
60979;SDS011;46851;49.160;8.980;2022-07-01T11:30:58;2.47;;;1.00;;
60979;SDS011;46851;49.160;8.980;2022-07-01T11:33:24;3.65;;;1.40;;
60979;SDS011;46851;49.160;8.980;2022-07-01T11:35:51;5.82;;;1.92;;
60979;SDS011;46851;49.160;8.980;2022-07-01T11:38:35;5.00;;;1.20;;
60979;SDS011;46851;49.160;8.980;2022-07-01T11:41:23;2.88;;;1.17;;
60979;SDS011;46851;49.160;8.980;2022-07-01T11:43:50;2.65;;;1.13;;
60979;SDS011;46851;49.160;8.980;2022-07-01T11:46:17;4.50;;;0.95;;
60979;SDS011;46851;49.160;8.980;2022-07-01T11:48:52;4.63;;;1.27;;
60979;SDS011;46851;49.160;8.980;2022-07-01T11:51:19;3.75;;;1.20;;
60979;SDS011;46851;49.160;8.980;2022-07-01T11:53:46;3.42;;;1.00;;
60979;SDS011;46851;49.160;8.980;2022-07-01T11:56:14;2.75;;;1.00;;
60979;SDS011;46851;49.160;8.980;2022-07-01T11:58:51;2.63;;;0.80;;
60979;SDS011;46851;49.160;8.980;2022-07-01T12:01:24;2.95;;;0.98;;
60979;SDS011;46851;49.160;8.980;2022-07-01T12:03:51;4.97;;;1.10;;
60979;SDS011;46851;49.160;8.980;2022-07-01T12:06:17;3.33;;;1.25;;
60979;SDS011;46851;49.160;8.980;2022-07-01T12:08:44;6.47;;;1.00;;
60979;SDS011;46851;49.160;8.980;2022-07-01T12:11:11;3.17;;;1.33;;
60979;SDS011;46851;49.160;8.980;2022-07-01T12:13:37;2.03;;;0.90;;
60979;SDS011;46851;49.160;8.980;2022-07-01T12:16:09;2.20;;;0.80;;
60979;SDS011;46851;49.160;8.980;2022-07-01T12:18:35;2.75;;;0.73;;
60979;SDS011;46851;49.160;8.980;2022-07-01T12:21:01;2.47;;;0.82;;
60979;SDS011;46851;49.160;8.980;2022-07-01T12:23:28;2.53;;;1.05;;
60979;SDS011;46851;49.160;8.980;2022-07-01T12:25:54;2.10;;;1.05;;
60979;SDS011;46851;49.160;8.980;2022-07-01T12:28:25;2.63;;;1.08;;
60979;SDS011;46851;49.160;8.980;2022-07-01T12:31:07;2.85;;;1.00;;
60979;SDS011;46851;49.160;8.980;2022-07-01T12:33:37;2.30;;;0.90;;
60979;SDS011;46851;49.160;8.980;2022-07-01T12:38:29;3.08;;;1.20;;
60979;SDS011;46851;49.160;8.980;2022-07-01T12:40:55;6.05;;;1.33;;
60979;SDS011;46851;49.160;8.980;2022-07-01T12:43:26;5.38;;;1.02;;
60979;SDS011;46851;49.160;8.980;2022-07-01T12:45:54;3.20;;;1.00;;
60979;SDS011;46851;49.160;8.980;2022-07-01T12:48:20;1.50;;;1.02;;
60979;SDS011;46851;49.160;8.980;2022-07-01T12:50:47;3.05;;;1.02;;
60979;SDS011;46851;49.160;8.980;2022-07-01T12:53:19;1.65;;;0.90;;
60979;SDS011;46851;49.160;8.980;2022-07-01T12:55:46;2.85;;;0.80;;
60979;SDS011;46851;49.160;8.980;2022-07-01T12:58:14;7.63;;;1.13;;
60979;SDS011;46851;49.160;8.980;2022-07-01T13:00:41;1.27;;;0.80;;
60979;SDS011;46851;49.160;8.980;2022-07-01T13:03:08;2.63;;;1.00;;
60979;SDS011;46851;49.160;8.980;2022-07-01T13:05:34;2.42;;;0.70;;
60979;SDS011;46851;49.160;8.980;2022-07-01T13:08:01;1.98;;;1.23;;
60979;SDS011;46851;49.160;8.980;2022-07-01T13:10:27;1.75;;;0.70;;
60979;SDS011;46851;49.160;8.980;2022-07-01T13:12:54;3.10;;;0.90;;
60979;SDS011;46851;49.160;8.980;2022-07-01T13:15:20;1.65;;;0.68;;
60979;SDS011;46851;49.160;8.980;2022-07-01T13:17:46;2.25;;;0.70;;
60979;SDS011;46851;49.160;8.980;2022-07-01T13:20:12;2.58;;;1.00;;
60979;SDS011;46851;49.160;8.980;2022-07-01T13:22:39;3.70;;;0.88;;
60979;SDS011;46851;49.160;8.980;2022-07-01T13:25:06;2.15;;;0.70;;
60979;SDS011;46851;49.160;8.980;2022-07-01T13:27:32;3.35;;;1.00;;
60979;SDS011;46851;49.160;8.980;2022-07-01T13:29:58;6.55;;;0.85;;
60979;SDS011;46851;49.160;8.980;2022-07-01T13:32:25;2.20;;;1.23;;
60979;SDS011;46851;49.160;8.980;2022-07-01T13:34:51;2.15;;;0.88;;
60979;SDS011;46851;49.160;8.980;2022-07-01T13:37:17;2.28;;;1.20;;
60979;SDS011;46851;49.160;8.980;2022-07-01T13:39:43;0.90;;;0.65;;
60979;SDS011;46851;49.160;8.980;2022-07-01T13:42:09;2.17;;;1.15;;
60979;SDS011;46851;49.160;8.980;2022-07-01T13:44:35;1.30;;;0.70;;
60979;SDS011;46851;49.160;8.980;2022-07-01T13:47:01;1.88;;;0.60;;
60979;SDS011;46851;49.160;8.980;2022-07-01T13:49:30;0.85;;;0.55;;
60979;SDS011;46851;49.160;8.980;2022-07-01T13:51:56;2.75;;;0.80;;
60979;SDS011;46851;49.160;8.980;2022-07-01T13:54:22;1.45;;;0.80;;
60979;SDS011;46851;49.160;8.980;2022-07-01T13:56:48;1.42;;;0.60;;
60979;SDS011;46851;49.160;8.980;2022-07-01T13:59:14;1.67;;;0.60;;
60979;SDS011;46851;49.160;8.980;2022-07-01T14:01:40;1.40;;;0.80;;
60979;SDS011;46851;49.160;8.980;2022-07-01T14:04:06;1.08;;;0.55;;
60979;SDS011;46851;49.160;8.980;2022-07-01T14:06:32;0.88;;;0.50;;
60979;SDS011;46851;49.160;8.980;2022-07-01T14:08:58;2.05;;;0.70;;
60979;SDS011;46851;49.160;8.980;2022-07-01T14:11:24;2.80;;;0.60;;
60979;SDS011;46851;49.160;8.980;2022-07-01T14:13:50;1.10;;;0.80;;
60979;SDS011;46851;49.160;8.980;2022-07-01T14:16:16;0.77;;;0.70;;
60979;SDS011;46851;49.160;8.980;2022-07-01T14:18:42;2.30;;;0.70;;
60979;SDS011;46851;49.160;8.980;2022-07-01T14:21:10;1.23;;;0.70;;
60979;SDS011;46851;49.160;8.980;2022-07-01T14:23:36;1.58;;;0.80;;
60979;SDS011;46851;49.160;8.980;2022-07-01T14:26:02;0.93;;;0.60;;
60979;SDS011;46851;49.160;8.980;2022-07-01T14:28:28;2.05;;;0.75;;
60979;SDS011;46851;49.160;8.980;2022-07-01T14:30:54;1.40;;;0.73;;
60979;SDS011;46851;49.160;8.980;2022-07-01T14:33:21;1.23;;;0.60;;
60979;SDS011;46851;49.160;8.980;2022-07-01T14:35:47;1.70;;;0.70;;
60979;SDS011;46851;49.160;8.980;2022-07-01T14:38:15;1.38;;;0.70;;
60979;SDS011;46851;49.160;8.980;2022-07-01T14:40:41;4.63;;;0.90;;
60979;SDS011;46851;49.160;8.980;2022-07-01T14:43:07;1.42;;;0.70;;
60979;SDS011;46851;49.160;8.980;2022-07-01T14:48:04;1.17;;;0.60;;
60979;SDS011;46851;49.160;8.980;2022-07-01T14:50:31;1.38;;;0.60;;
60979;SDS011;46851;49.160;8.980;2022-07-01T14:52:58;1.25;;;0.52;;
60979;SDS011;46851;49.160;8.980;2022-07-01T14:55:24;0.70;;;0.50;;
60979;SDS011;46851;49.160;8.980;2022-07-01T14:57:50;1.67;;;0.70;;
60979;SDS011;46851;49.160;8.980;2022-07-01T15:00:16;1.90;;;0.60;;
60979;SDS011;46851;49.160;8.980;2022-07-01T15:02:42;1.30;;;0.75;;
60979;SDS011;46851;49.160;8.980;2022-07-01T15:05:08;1.88;;;0.68;;
60979;SDS011;46851;49.160;8.980;2022-07-01T15:07:34;3.13;;;0.80;;
60979;SDS011;46851;49.160;8.980;2022-07-01T15:10:00;1.85;;;0.90;;
60979;SDS011;46851;49.160;8.980;2022-07-01T15:12:27;1.83;;;0.77;;
60979;SDS011;46851;49.160;8.980;2022-07-01T15:14:53;1.98;;;0.60;;